Airfield :
LOGIN :

Register | Disclaimer

   EN    FR    IT 

 










Legend :    VFR   Marginal VFR   IFR   Intensive IFR   Very Intensive IFR
Visi :
Ceiling :
>= 8 km
>= 3000ft
5 to 8 km
1000 to 3000 ft
1500m to 5 km
500 to 1000 ft
800 to 1500m
200 to 500 ft
< 800m
< 200 ft
Symbols :   Thunderstorms  Fog  Heavy snow  Heavy precipitations  Wind > 20 kt
SIGMETs :     Misc.  Thunderstorms  Icing  Turbulence  Mountain Waves  Volcanic Ashes







- Airport Elevation : 194 ft
- IATA code : LME
- Download approach charts


LFRM - Le Mans

CURRENT METAR :
  • 182100Z AUTO 23005KT 200V260 1300 BR VV/// 04/04 Q1026 BECMG 0600 FG OVC003

EXPIRED METARs :
  • 182030Z AUTO 23003KT 200V270 0900 FG VV/// 05/04 Q1026 BECMG 0600 FG OVC003
  • 182000Z AUTO 26004KT 200V280 1100 BR VV/// 04/04 Q1026 BECMG 0600 FG OVC003
  • 181930Z AUTO 24005KT 210V280 0900 FG VV/// 05/05 Q1026 BECMG 0600 FG OVC003
  • 181900Z AUTO 24004KT 200V300 1100 BR VV/// 05/05 Q1026 BECMG 0600 FG OVC003
  • 181830Z AUTO 25004KT 180V290 2600 BR OVC002 05/05 Q1026 BECMG 0600 FG

TAF TAF LFRM
Valid from the 18 at 18:00 until the 19 at 03:00 UTC


181700Z 1818/1903 VRB03KT 3000 BR OVC003
BECMG 1819/1821 0600 FG
TEMPO 1900/1903 0300 VV///
No reported NOTAMs for that airfield.
1 SIGMET reported for the Paris FIR (LFFF) :
 
Severe icing
LFFF SIGMET 1 VALID 182100/190100 LFPW
LFFF PARIS FIR/UIR SEV ICE OBS WI N5045 E00315 - N4930 E00600 - N4915 E00515 - N5000 E00300 FL080/220 MOV SE 20KT NC=



MET'MAP, your aeronautical weather chart ! - Copyright ORBIFLY December 2007 - Disclaimer

ORBIFLY MET'MAP TEAM :

Programming & Development : Alexandra Zaïnal
Concept & Development : Baudouin d'Aumeries
Co-Development & Prog : Marc-Olivier Méhu
Technical & hardware support : Manuel Goepfert

Contact : metmap@orbifly.com




SOURCES & CREDITS :

   NOAA